createdAt,value
2018-11-04T00:02:00.052Z,11.83
2018-11-04T00:04:28.759Z,13.23
2018-11-04T00:06:57.855Z,13.13
2018-11-04T00:09:26.030Z,12.67
2018-11-04T00:11:54.179Z,13.73
2018-11-04T00:14:22.334Z,12.27
2018-11-04T00:16:50.457Z,12.20
2018-11-04T00:19:18.782Z,13.50
2018-11-04T00:21:46.951Z,12.63
2018-11-04T00:24:15.148Z,13.00
2018-11-04T00:26:43.211Z,12.37
2018-11-04T00:29:11.416Z,12.93
2018-11-04T00:31:40.516Z,12.00
2018-11-04T00:34:08.677Z,12.20
2018-11-04T00:36:36.804Z,12.63
2018-11-04T00:39:06.944Z,12.70
2018-11-04T00:41:35.098Z,12.30
2018-11-04T00:44:03.207Z,12.20
2018-11-04T00:46:31.388Z,11.53
2018-11-04T00:48:59.743Z,12.17
2018-11-04T00:51:27.863Z,11.93
2018-11-04T00:53:56.019Z,11.87
2018-11-04T00:56:24.150Z,11.77
2018-11-04T00:58:52.357Z,11.33
2018-11-04T01:01:20.516Z,12.03
2018-11-04T01:03:48.609Z,11.50
2018-11-04T01:06:16.744Z,12.30
2018-11-04T01:08:45.063Z,10.90
2018-11-04T01:11:13.197Z,11.70
2018-11-04T01:13:41.306Z,12.07
2018-11-04T01:16:09.404Z,11.47
2018-11-04T01:18:37.745Z,12.00
2018-11-04T01:21:06.111Z,11.30
2018-11-04T01:23:34.165Z,11.53
2018-11-04T01:26:02.303Z,12.23
2018-11-04T01:28:30.393Z,11.20
2018-11-04T01:30:58.497Z,11.90
2018-11-04T01:33:26.596Z,11.30
2018-11-04T01:35:54.728Z,11.90
2018-11-04T01:38:22.949Z,11.63
2018-11-04T01:40:51.088Z,10.70
2018-11-04T01:43:19.211Z,11.17
2018-11-04T01:45:47.324Z,11.00
2018-11-04T01:48:15.613Z,10.40
2018-11-04T01:50:43.737Z,11.03
2018-11-04T01:53:11.855Z,10.57
2018-11-04T01:55:39.989Z,11.13
2018-11-04T01:58:08.309Z,10.77
2018-11-04T02:00:36.426Z,11.40
2018-11-04T02:03:04.560Z,10.93
2018-11-04T02:05:32.673Z,10.97
2018-11-04T02:08:00.805Z,11.10
2018-11-04T02:10:28.938Z,11.13
2018-11-04T02:12:57.061Z,11.47
2018-11-04T02:15:25.185Z,11.30
2018-11-04T02:17:53.300Z,11.00
2018-11-04T02:20:21.590Z,11.13
2018-11-04T02:22:49.738Z,11.00
2018-11-04T02:25:17.866Z,10.43
2018-11-04T02:27:45.953Z,11.37
2018-11-04T02:30:15.440Z,11.17
2018-11-04T02:32:44.539Z,11.23
2018-11-04T02:35:13.424Z,10.73
2018-11-04T02:37:41.743Z,11.60
2018-11-04T02:40:10.440Z,11.50
2018-11-04T02:42:38.566Z,10.50
2018-11-04T02:45:07.179Z,10.50
2018-11-04T02:47:35.586Z,11.50
2018-11-04T02:50:03.908Z,10.97
2018-11-04T02:52:32.041Z,10.97
2018-11-04T02:55:00.177Z,11.10
2018-11-04T02:57:28.277Z,10.67
2018-11-04T02:59:56.384Z,11.20
2018-11-04T03:02:24.507Z,11.20
2018-11-04T03:04:52.617Z,10.60
2018-11-04T03:07:20.720Z,10.67
2018-11-04T03:09:48.898Z,9.83
2018-11-04T03:12:17.027Z,11.40
2018-11-04T03:14:45.166Z,11.13
2018-11-04T03:17:13.293Z,10.47
2018-11-04T03:19:41.624Z,10.40
2018-11-04T03:22:09.747Z,11.30
2018-11-04T03:24:37.943Z,10.43
2018-11-04T03:27:06.000Z,10.40
2018-11-04T03:29:34.284Z,10.80
2018-11-04T03:32:02.418Z,10.90
2018-11-04T03:34:30.554Z,10.67
2018-11-04T03:36:58.666Z,10.50
2018-11-04T03:39:26.981Z,10.73
2018-11-04T03:41:55.098Z,10.70
2018-11-04T03:44:23.209Z,10.23
2018-11-04T03:46:51.428Z,10.27
2018-11-04T03:49:19.735Z,13.97
2018-11-04T03:51:47.864Z,11.93
2018-11-04T03:54:16.010Z,11.33
2018-11-04T03:56:44.131Z,10.97
2018-11-04T03:59:12.365Z,11.00
2018-11-04T04:01:40.457Z,10.63
2018-11-04T04:04:08.578Z,10.43
2018-11-04T04:06:38.646Z,11.10
2018-11-04T04:09:08.194Z,10.63
2018-11-04T04:11:37.400Z,10.40
2018-11-04T04:14:05.920Z,10.23
2018-11-04T04:16:34.140Z,10.97
2018-11-04T04:19:02.700Z,11.17
2018-11-04T04:21:30.824Z,10.45
2018-11-04T04:23:59.281Z,10.17
2018-11-04T04:26:27.417Z,11.40
2018-11-04T04:28:56.610Z,10.40
2018-11-04T04:31:24.700Z,10.20
2018-11-04T04:33:52.784Z,10.80
2018-11-04T04:36:20.879Z,11.07
2018-11-04T04:38:49.098Z,10.70
2018-11-04T04:41:17.222Z,10.60
2018-11-04T04:43:46.163Z,10.10
2018-11-04T04:46:15.214Z,10.83
2018-11-04T04:48:46.004Z,10.47
2018-11-04T04:51:15.948Z,10.77
2018-11-04T04:53:44.075Z,10.53
2018-11-04T05:16:23.195Z,9.93
2018-11-04T05:36:09.489Z,10.13
2018-11-04T05:55:55.519Z,10.13
2018-11-04T05:58:23.788Z,10.77
2018-11-04T06:00:51.906Z,10.40
2018-11-04T06:03:20.048Z,9.70
2018-11-04T06:05:48.180Z,10.10
2018-11-04T06:08:16.496Z,10.53
2018-11-04T06:10:44.644Z,10.30
2018-11-04T06:13:13.004Z,10.03
2018-11-04T06:15:54.652Z,10.67
2018-11-04T06:18:24.434Z,10.80
2018-11-04T06:20:53.803Z,9.93
2018-11-04T06:23:21.951Z,9.17
2018-11-04T06:25:50.050Z,9.97
2018-11-04T06:28:18.997Z,9.77
2018-11-04T06:30:47.136Z,9.57
2018-11-04T06:33:17.436Z,10.07
2018-11-04T06:35:45.918Z,10.05
2018-11-04T06:38:14.293Z,9.37
2018-11-04T06:40:43.319Z,9.97
2018-11-04T06:43:12.440Z,9.97
2018-11-04T06:45:42.194Z,10.87
2018-11-04T06:48:10.405Z,9.87
2018-11-04T06:50:38.557Z,10.43
2018-11-04T06:53:06.698Z,10.57
2018-11-04T06:55:34.844Z,9.93
2018-11-04T06:58:03.799Z,10.73
2018-11-04T07:00:32.364Z,9.87
2018-11-04T07:03:00.508Z,11.13
2018-11-04T07:05:28.672Z,10.53
2018-11-04T07:07:58.189Z,11.30
2018-11-04T07:10:26.329Z,10.97
2018-11-04T07:12:54.512Z,10.20
2018-11-04T07:15:22.635Z,11.20
2018-11-04T07:17:50.750Z,10.97
2018-11-04T07:20:19.054Z,10.73
2018-11-04T07:22:47.399Z,11.30
2018-11-04T07:25:15.514Z,11.63
2018-11-04T07:27:43.624Z,10.90
2018-11-04T07:30:12.454Z,11.83
2018-11-04T07:32:41.302Z,11.50
2018-11-04T07:35:10.663Z,11.53
2018-11-04T07:37:39.227Z,11.50
2018-11-04T07:40:08.099Z,12.00
2018-11-04T07:42:36.371Z,11.90
2018-11-04T07:45:04.813Z,13.07
2018-11-04T07:47:32.920Z,12.33
2018-11-04T07:50:01.200Z,13.20
2018-11-04T07:52:29.340Z,12.40
2018-11-04T07:54:57.493Z,13.83
2018-11-04T07:57:25.597Z,12.43
2018-11-04T07:59:53.860Z,12.60
2018-11-04T08:02:22.007Z,13.47
2018-11-04T08:04:50.122Z,13.00
2018-11-04T08:07:18.664Z,12.67
2018-11-04T08:09:46.980Z,12.87
2018-11-04T08:12:15.099Z,13.10
2018-11-04T08:14:43.351Z,13.43
2018-11-04T08:17:11.459Z,13.60
2018-11-04T08:19:39.666Z,12.53
2018-11-04T08:22:07.831Z,12.75
2018-11-04T08:24:35.953Z,12.93
2018-11-04T08:27:04.061Z,12.93
2018-11-04T08:29:32.334Z,13.37
2018-11-04T08:32:00.467Z,14.20
2018-11-04T08:34:28.603Z,13.87
2018-11-04T08:36:56.738Z,12.73
2018-11-04T08:39:25.092Z,14.33
2018-11-04T08:41:53.217Z,13.67
2018-11-04T08:44:21.408Z,13.27
2018-11-04T08:46:49.543Z,13.67
2018-11-04T08:49:17.766Z,13.97
2018-11-04T08:51:45.919Z,14.17
2018-11-04T08:54:14.050Z,14.13
2018-11-04T08:56:42.135Z,13.90
2018-11-04T08:59:10.275Z,14.97
2018-11-04T09:01:38.400Z,13.90
2018-11-04T09:04:06.533Z,14.63
2018-11-04T09:06:36.196Z,14.23
2018-11-04T09:09:06.169Z,15.17
2018-11-04T09:11:34.298Z,14.90
2018-11-04T09:14:02.435Z,14.80
2018-11-04T09:16:30.590Z,14.87
2018-11-04T09:18:58.892Z,15.63
2018-11-04T09:21:27.317Z,14.70
2018-11-04T09:23:55.442Z,15.70
2018-11-04T09:26:23.611Z,14.30
2018-11-04T09:28:51.791Z,15.30
2018-11-04T09:31:19.905Z,15.57
2018-11-04T09:33:48.004Z,15.73
2018-11-04T09:36:16.284Z,16.07
2018-11-04T09:38:57.176Z,17.37
2018-11-04T09:41:32.315Z,15.27
2018-11-04T09:44:09.476Z,17.73
2018-11-04T09:46:37.603Z,16.80
2018-11-04T09:49:06.170Z,16.40
2018-11-04T09:51:34.316Z,16.27
2018-11-04T09:54:02.537Z,16.10
2018-11-04T09:56:33.633Z,16.27
2018-11-04T09:59:01.820Z,17.03
2018-11-04T10:01:31.766Z,16.43
2018-11-04T10:04:00.967Z,15.83
2018-11-04T10:06:29.375Z,17.00
2018-11-04T10:09:11.728Z,16.97
2018-11-04T10:11:40.774Z,16.87
2018-11-04T10:14:09.477Z,17.30
2018-11-04T10:16:38.043Z,16.30
2018-11-04T10:19:07.887Z,16.83
2018-11-04T10:21:35.811Z,15.80
2018-11-04T10:24:04.148Z,16.23
2018-11-04T10:26:32.323Z,16.50
2018-11-04T10:29:06.228Z,17.20
2018-11-04T10:31:35.327Z,16.53
2018-11-04T10:34:06.381Z,17.33
2018-11-04T10:36:41.755Z,16.67
2018-11-04T10:39:17.144Z,16.23
2018-11-04T10:44:46.350Z,16.27
2018-11-04T10:47:14.519Z,17.33
2018-11-04T10:49:56.047Z,17.73
2018-11-04T10:52:24.575Z,17.53
2018-11-04T10:54:52.716Z,16.40
2018-11-04T10:57:21.734Z,16.80
2018-11-04T10:59:51.545Z,17.97
2018-11-04T11:02:19.784Z,17.57
2018-11-04T11:04:47.920Z,16.97
2018-11-04T11:07:16.032Z,16.80
2018-11-04T11:09:45.372Z,17.53
2018-11-04T11:12:13.487Z,17.73
2018-11-04T11:14:41.636Z,17.73
2018-11-04T11:17:09.761Z,17.17
2018-11-04T11:19:37.987Z,17.50
2018-11-04T11:22:06.125Z,18.20
2018-11-04T11:24:34.303Z,18.03
2018-11-04T11:27:02.394Z,17.87
2018-11-04T11:29:30.648Z,17.43
2018-11-04T11:31:58.765Z,18.93
2018-11-04T11:34:26.906Z,17.87
2018-11-04T11:36:55.046Z,19.27
2018-11-04T11:39:23.354Z,17.20
2018-11-04T11:41:51.445Z,17.27
2018-11-04T11:44:19.607Z,17.23
2018-11-04T11:46:47.704Z,18.00
2018-11-04T11:49:15.855Z,17.67
2018-11-04T11:51:43.981Z,17.90
2018-11-04T11:54:12.114Z,17.50
2018-11-04T11:56:40.193Z,17.07
2018-11-04T11:59:08.314Z,18.43
2018-11-04T12:01:36.421Z,17.13
2018-11-04T12:04:04.551Z,17.93
2018-11-04T12:06:33.259Z,18.07
2018-11-04T12:09:01.453Z,16.97
2018-11-04T12:11:29.559Z,18.43
2018-11-04T12:14:03.531Z,17.77
2018-11-04T12:16:32.274Z,17.93
2018-11-04T12:19:00.491Z,18.43
2018-11-04T12:21:31.207Z,17.80
2018-11-04T12:23:59.326Z,18.23
2018-11-04T12:26:27.462Z,19.13
2018-11-04T12:28:55.615Z,18.27
2018-11-04T12:31:23.742Z,17.23
2018-11-04T12:33:51.894Z,18.40
2018-11-04T12:36:19.989Z,17.77
2018-11-04T12:38:48.336Z,18.77
2018-11-04T12:41:16.456Z,17.73
2018-11-04T12:43:44.585Z,18.70
2018-11-04T12:46:12.710Z,18.43
2018-11-04T12:48:41.362Z,18.17
2018-11-04T12:51:09.511Z,17.17
2018-11-04T12:53:37.645Z,17.90
2018-11-04T12:56:05.910Z,18.80
2018-11-04T12:58:34.004Z,18.77
2018-11-04T13:01:02.146Z,18.23
2018-11-04T13:03:30.273Z,18.50
2018-11-04T13:05:58.425Z,17.63
2018-11-04T13:08:26.631Z,17.77
2018-11-04T13:11:03.642Z,18.43
2018-11-04T13:13:31.775Z,17.87
2018-11-04T13:15:59.898Z,18.63
2018-11-04T13:18:28.097Z,17.47
2018-11-04T13:20:56.243Z,18.70
2018-11-04T13:23:24.383Z,17.77
2018-11-04T13:25:52.506Z,18.43
2018-11-04T13:28:20.781Z,51.73
2018-11-04T13:30:48.892Z,54.47
2018-11-04T13:33:17.020Z,24.87
2018-11-04T13:35:45.216Z,26.80
2018-11-04T13:38:28.894Z,23.60
2018-11-04T13:40:57.024Z,26.07
2018-11-04T13:43:25.238Z,34.23
2018-11-04T13:45:53.356Z,19.80
2018-11-04T13:48:21.984Z,21.73
2018-11-04T13:50:50.115Z,20.50
2018-11-04T13:53:18.234Z,22.90
2018-11-04T13:55:46.380Z,20.27
2018-11-04T13:58:14.608Z,27.80
2018-11-04T14:00:42.722Z,23.00
2018-11-04T14:03:10.859Z,21.40
2018-11-04T14:05:38.989Z,25.07
2018-11-04T14:08:07.717Z,19.57
2018-11-04T14:10:35.875Z,20.73
2018-11-04T14:13:05.171Z,19.43
2018-11-04T14:15:33.291Z,18.43
2018-11-04T14:18:01.594Z,19.83
2018-11-04T14:20:29.746Z,20.17
2018-11-04T14:22:57.895Z,20.73
2018-11-04T14:25:25.998Z,21.17
2018-11-04T14:27:54.138Z,21.47
2018-11-04T14:30:22.419Z,20.67
2018-11-04T14:32:50.525Z,22.10
2018-11-04T14:35:18.680Z,22.53
2018-11-04T14:37:46.843Z,24.40
2018-11-04T14:40:15.694Z,22.50
2018-11-04T14:42:44.537Z,23.00
2018-11-04T14:45:12.668Z,21.37
2018-11-04T14:47:40.790Z,21.20
2018-11-04T14:50:13.050Z,20.57
2018-11-04T14:52:41.220Z,21.13
2018-11-04T14:55:09.884Z,21.13
2018-11-04T14:57:41.090Z,22.60
2018-11-04T15:00:12.209Z,22.17
2018-11-04T15:02:40.464Z,22.50
2018-11-04T15:05:09.396Z,21.73
2018-11-04T15:07:37.914Z,21.60
2018-11-04T15:10:07.612Z,21.37
2018-11-04T15:12:35.764Z,20.07
2018-11-04T15:15:04.684Z,21.27
2018-11-04T15:17:32.777Z,21.27
2018-11-04T15:20:01.354Z,21.50
2018-11-04T15:22:29.444Z,21.50
2018-11-04T15:25:09.089Z,21.50
2018-11-04T15:27:41.124Z,19.93
2018-11-04T15:30:14.367Z,20.93
2018-11-04T15:32:44.202Z,20.93
2018-11-04T15:35:13.390Z,20.67
2018-11-04T15:37:45.816Z,20.70
2018-11-04T15:40:15.548Z,20.20
2018-11-04T15:42:45.173Z,20.63
2018-11-04T15:45:14.663Z,19.87
2018-11-04T15:47:53.176Z,19.10
2018-11-04T15:50:21.651Z,20.20
2018-11-04T15:52:57.045Z,20.07
2018-11-04T15:55:25.149Z,19.60
2018-11-04T15:57:53.264Z,18.83
2018-11-04T16:00:21.554Z,19.37
2018-11-04T16:02:49.742Z,19.13
2018-11-04T16:05:18.295Z,19.90
2018-11-04T16:07:46.588Z,19.70
2018-11-04T16:10:14.911Z,18.57
2018-11-04T16:12:43.256Z,18.60
2018-11-04T16:15:12.871Z,19.50
2018-11-04T16:17:41.723Z,19.10
2018-11-04T16:20:14.131Z,20.80
2018-11-04T16:22:42.833Z,19.50
2018-11-04T16:25:16.829Z,19.47
2018-11-04T16:27:46.310Z,20.93
2018-11-04T16:30:17.488Z,19.33
2018-11-04T16:32:47.805Z,19.17
2018-11-04T16:35:19.737Z,18.70
2018-11-04T16:37:48.940Z,18.37
2018-11-04T16:40:17.116Z,17.90
2018-11-04T16:42:45.483Z,17.67
2018-11-04T16:45:15.092Z,18.57
2018-11-04T16:50:56.273Z,18.87
2018-11-04T16:53:24.387Z,18.37
2018-11-04T16:55:52.528Z,19.17
2018-11-04T16:58:21.130Z,20.60
2018-11-04T17:00:49.606Z,20.43
2018-11-04T17:03:18.024Z,20.20
2018-11-04T17:05:46.219Z,19.67
2018-11-04T17:08:37.547Z,21.60
2018-11-04T17:11:05.771Z,20.47
2018-11-04T17:13:52.153Z,22.13
2018-11-04T17:16:35.656Z,21.00
2018-11-04T17:19:08.308Z,20.83
2018-11-04T17:21:39.457Z,21.03
2018-11-04T17:24:08.124Z,21.73
2018-11-04T17:26:37.050Z,21.43
2018-11-04T17:29:05.382Z,22.40
2018-11-04T17:31:34.169Z,21.93
2018-11-04T17:34:05.733Z,22.37
2018-11-04T17:36:34.932Z,23.00
2018-11-04T17:39:02.969Z,23.93
2018-11-04T17:41:33.288Z,22.77
2018-11-04T17:44:01.773Z,22.33
2018-11-04T17:49:15.163Z,21.67
2018-11-04T17:51:49.328Z,21.27
2018-11-04T17:54:18.954Z,21.67
2018-11-04T17:57:01.482Z,22.20
2018-11-04T17:59:35.471Z,21.77
2018-11-04T18:02:07.197Z,22.60
2018-11-04T18:04:35.322Z,21.50
2018-11-04T18:07:06.999Z,23.23
2018-11-04T18:09:57.539Z,21.57
2018-11-04T18:12:40.345Z,21.83
2018-11-04T18:15:10.748Z,22.17
2018-11-04T18:17:39.520Z,22.93
2018-11-04T18:20:08.810Z,22.97
2018-11-04T18:22:37.416Z,21.90
2018-11-04T18:25:16.716Z,24.53
2018-11-04T18:27:51.856Z,23.43
2018-11-04T18:30:23.969Z,23.03
2018-11-04T18:32:52.077Z,23.50
2018-11-04T18:35:20.479Z,23.07
2018-11-04T18:37:48.615Z,23.57
2018-11-04T18:40:26.003Z,24.37
2018-11-04T18:43:02.743Z,23.97
2018-11-04T18:50:18.711Z,23.30
2018-11-04T18:52:47.502Z,23.87
2018-11-04T18:55:16.115Z,24.00
2018-11-04T18:57:50.136Z,23.93
2018-11-04T19:00:33.393Z,24.80
2018-11-04T19:03:23.957Z,25.47
2018-11-04T19:08:57.991Z,23.90
2018-11-04T19:11:28.346Z,25.27
2018-11-04T19:13:58.392Z,24.20
2018-11-04T19:16:26.724Z,24.13
2018-11-04T19:18:55.088Z,24.77
2018-11-04T19:21:23.175Z,24.10
2018-11-04T19:23:51.318Z,24.43
2018-11-04T19:26:19.808Z,24.33
2018-11-04T19:28:47.953Z,24.73
2018-11-04T19:31:16.640Z,24.73
2018-11-04T19:33:44.711Z,23.73
2018-11-04T19:36:13.647Z,25.17
2018-11-04T19:38:43.244Z,25.27
2018-11-04T19:41:13.614Z,24.27
2018-11-04T19:43:47.839Z,24.97
2018-11-04T19:46:26.533Z,23.90
2018-11-04T19:48:57.869Z,24.73
2018-11-04T19:51:26.742Z,24.77
2018-11-04T19:59:42.349Z,23.03
2018-11-04T20:02:10.500Z,23.50
2018-11-04T20:04:38.665Z,25.17
2018-11-04T20:07:06.816Z,25.00
2018-11-04T20:09:35.154Z,23.77
2018-11-04T20:12:03.544Z,24.00
2018-11-04T20:14:33.014Z,25.27
2018-11-04T20:17:02.822Z,25.80
2018-11-04T20:19:36.739Z,24.33
2018-11-04T20:22:06.545Z,24.00
2018-11-04T20:24:40.257Z,24.20
2018-11-04T20:27:10.687Z,24.27
2018-11-04T20:29:39.909Z,23.67
2018-11-04T20:32:13.454Z,24.60
2018-11-04T20:34:42.878Z,22.93
2018-11-04T20:37:12.987Z,25.05
2018-11-04T20:39:46.488Z,24.17
2018-11-04T20:42:14.975Z,24.83
2018-11-04T20:44:45.856Z,23.97
2018-11-04T20:47:14.753Z,24.53
2018-11-04T20:49:48.724Z,24.23
2018-11-04T20:52:17.930Z,24.33
2018-11-04T20:54:46.754Z,23.73
2018-11-04T20:57:20.558Z,23.80
2018-11-04T20:59:51.113Z,24.47
2018-11-04T21:02:19.912Z,23.90
2018-11-04T21:04:48.445Z,23.90
2018-11-04T21:07:16.593Z,23.10
2018-11-04T21:09:44.928Z,23.47
2018-11-04T21:12:13.356Z,23.17
2018-11-04T21:14:43.390Z,22.90
2018-11-04T21:17:11.518Z,23.93
2018-11-04T21:19:39.837Z,23.67
2018-11-04T21:22:09.257Z,23.87
2018-11-04T21:24:37.640Z,23.17
2018-11-04T21:27:06.324Z,23.30
2018-11-04T21:29:34.996Z,22.97
2018-11-04T21:32:03.286Z,23.30
2018-11-04T21:34:31.426Z,23.50
2018-11-04T21:36:59.580Z,23.80
2018-11-04T21:39:27.933Z,23.77
2018-11-04T21:41:56.065Z,23.37
2018-11-04T21:44:24.399Z,22.47
2018-11-04T21:46:52.424Z,23.03
2018-11-04T21:49:20.615Z,23.53
2018-11-04T21:51:48.742Z,23.87
2018-11-04T21:54:16.880Z,23.73
2018-11-04T21:56:45.733Z,23.13
2018-11-04T21:59:13.876Z,23.43
2018-11-04T22:01:42.026Z,23.50
2018-11-04T22:04:16.881Z,23.60
2018-11-04T22:06:45.563Z,22.50
2018-11-04T22:09:14.248Z,22.53
2018-11-04T22:11:42.411Z,23.30
2018-11-04T22:14:10.534Z,23.77
2018-11-04T22:16:38.707Z,24.13
2018-11-04T22:19:07.588Z,23.23
2018-11-04T22:21:35.774Z,24.23
2018-11-04T22:24:04.220Z,23.30
2018-11-04T22:26:32.812Z,24.00
2018-11-04T22:29:01.574Z,22.53
2018-11-04T22:31:29.799Z,21.93
2018-11-04T22:33:57.936Z,23.50
2018-11-04T22:36:29.309Z,22.97
2018-11-04T22:38:59.961Z,21.23
2018-11-04T22:41:28.427Z,22.13
2018-11-04T22:43:56.542Z,22.57
2018-11-04T22:46:24.743Z,22.97
2018-11-04T22:48:52.934Z,21.97
2018-11-04T22:51:21.082Z,20.27
2018-11-04T22:53:49.654Z,22.90
2018-11-04T22:56:18.918Z,22.10
2018-11-04T22:58:47.035Z,21.83
2018-11-04T23:01:15.170Z,21.27
2018-11-04T23:03:43.300Z,21.43
2018-11-04T23:06:11.433Z,21.30
2018-11-04T23:08:39.732Z,21.40
2018-11-04T23:11:07.902Z,21.00
2018-11-04T23:13:36.033Z,20.87
2018-11-04T23:16:04.165Z,21.20
2018-11-04T23:18:32.479Z,20.87
2018-11-04T23:21:00.579Z,20.23
2018-11-04T23:23:28.711Z,20.47
2018-11-04T23:25:56.892Z,19.80
2018-11-04T23:28:25.106Z,19.87
2018-11-04T23:30:53.228Z,20.63
2018-11-04T23:33:21.359Z,17.87
2018-11-04T23:35:49.485Z,20.93
2018-11-04T23:38:17.837Z,20.73
2018-11-04T23:40:45.969Z,20.63
2018-11-04T23:43:14.118Z,20.83
2018-11-04T23:45:42.290Z,20.73
2018-11-04T23:48:10.518Z,21.37
2018-11-04T23:50:38.687Z,21.23
2018-11-04T23:53:06.818Z,21.53
2018-11-04T23:55:34.948Z,21.53
2018-11-04T23:58:03.055Z,21.37
